Time;durP1;ratioP1;P1;durP2;ratioP2;P2;SDS_P1;SDS_P2;PMS_P1;PMS_P2;Temp;Humidity;BMP_temperature;BMP_pressure;BME280_temperature;BME280_humidity;BME280_pressure;Samples;Min_cycle;Max_cycle;Signal;HPM_P1;HPM_P2
2022/01/30 00:01:53;;;;;;;22.03;3.80;;;7.20;99.90;;;;;;5062349;28;20525;-78
2022/01/30 00:04:20;;;;;;;16.90;3.90;;;7.10;99.90;;;;;;5065750;28;20206;-77
2022/01/30 00:06:46;;;;;;;19.13;4.27;;;7.10;99.90;;;;;;5063032;28;20317;-78
2022/01/30 00:09:21;;;;;;;29.40;4.73;;;7.10;99.90;;;;;;5062070;28;20233;-78
2022/01/30 00:11:54;;;;;;;21.17;4.37;;;7.00;99.90;;;;;;5060157;28;20832;-77
2022/01/30 00:14:22;;;;;;;28.77;4.37;;;7.00;99.90;;;;;;5063480;28;20301;-77
2022/01/30 00:16:57;;;;;;;26.87;4.70;;;7.00;99.90;;;;;;5066001;28;20231;-78
2022/01/30 00:19:34;;;;;;;32.47;5.57;;;7.00;99.90;;;;;;5059170;28;20210;-78
2022/01/30 00:27:27;;;;;;;26.40;4.97;;;6.90;99.90;;;;;;5065581;28;20244;-77
2022/01/30 00:29:54;;;;;;;25.53;4.67;;;6.90;99.90;;;;;;5068295;28;20206;-78
2022/01/30 00:32:21;;;;;;;28.50;4.70;;;6.90;99.90;;;;;;5063806;28;20217;-77
2022/01/30 00:35:09;;;;;;;25.53;4.20;;;6.90;99.90;;;;;;5065506;28;20218;-77
2022/01/30 00:37:41;;;;;;;34.20;4.43;;;6.90;99.90;;;;;;5063496;28;20725;-77
2022/01/30 00:40:28;;;;;;;25.73;4.23;;;6.90;99.90;;;;;;5060276;28;20595;-77
2022/01/30 00:42:55;;;;;;;26.10;4.40;;;6.90;99.90;;;;;;5064379;28;20629;-77
2022/01/30 00:45:22;;;;;;;21.03;4.80;;;6.90;99.90;;;;;;5063565;28;20210;-77
2022/01/30 00:47:49;;;;;;;29.77;4.30;;;6.90;99.90;;;;;;5065023;28;20323;-78
2022/01/30 00:50:17;;;;;;;18.60;5.03;;;7.00;99.90;;;;;;5068336;28;20874;-76
2022/01/30 00:52:49;;;;;;;12.50;4.10;;;7.10;99.90;;;;;;5066043;28;20295;-77
2022/01/30 00:55:16;;;;;;;17.80;3.10;;;7.30;99.90;;;;;;5067270;28;21004;-77
2022/01/30 00:57:43;;;;;;;12.80;3.50;;;7.30;99.90;;;;;;5068868;28;20774;-77
2022/01/30 01:00:10;;;;;;;12.93;3.30;;;7.10;99.90;;;;;;5067393;28;20203;-77
2022/01/30 01:02:37;;;;;;;21.43;3.77;;;7.10;99.90;;;;;;5063213;28;20227;-78
2022/01/30 01:05:06;;;;;;;11.30;3.20;;;7.10;99.90;;;;;;5063398;28;20687;-78
2022/01/30 01:07:34;;;;;;;15.93;3.57;;;6.90;99.90;;;;;;5065085;28;20220;-78
2022/01/30 01:10:10;;;;;;;19.93;4.20;;;6.90;99.90;;;;;;5064777;28;20206;-78
2022/01/30 01:23:39;;;;;;;23.13;4.60;;;6.70;99.90;;;;;;5066181;28;20210;-77
2022/01/30 01:26:06;;;;;;;22.57;4.17;;;6.70;99.90;;;;;;5068443;28;20205;-77
2022/01/30 01:28:33;;;;;;;17.47;3.77;;;6.70;99.90;;;;;;5065233;28;20334;-77
2022/01/30 01:31:00;;;;;;;18.90;4.00;;;6.60;99.90;;;;;;5047722;28;20241;-77
2022/01/30 01:33:37;;;;;;;17.23;4.13;;;6.60;99.90;;;;;;5062358;28;20229;-77
2022/01/30 01:36:03;;;;;;;26.73;4.83;;;6.60;99.90;;;;;;5063969;28;20198;-78
2022/01/30 01:38:30;;;;;;;17.50;4.63;;;6.60;99.90;;;;;;5059555;28;20291;-78
2022/01/30 01:40:57;;;;;;;18.80;3.03;;;6.50;99.90;;;;;;5062349;28;20543;-78
2022/01/30 01:43:25;;;;;;;17.30;3.90;;;6.50;99.90;;;;;;5063445;28;20206;-77
2022/01/30 01:45:54;;;;;;;21.33;4.00;;;6.50;99.90;;;;;;5067726;28;20197;-77
2022/01/30 01:48:22;;;;;;;20.53;2.93;;;6.40;99.90;;;;;;5062069;28;20700;-77
2022/01/30 01:50:53;;;;;;;23.40;3.33;;;6.40;99.90;;;;;;5039905;28;20262;-77
2022/01/30 01:53:22;;;;;;;15.97;3.07;;;6.40;99.90;;;;;;5046151;28;20219;-77
2022/01/30 01:55:49;;;;;;;16.73;2.90;;;6.40;99.90;;;;;;5043535;28;20215;-76
2022/01/30 01:58:16;;;;;;;16.10;3.47;;;6.30;99.90;;;;;;5042812;28;20202;-76
2022/01/30 02:00:43;;;;;;;17.10;3.03;;;6.40;99.90;;;;;;5046521;28;20644;-78
2022/01/30 02:03:10;;;;;;;9.63;2.47;;;6.40;99.90;;;;;;5044395;28;20239;-78
2022/01/30 02:05:48;;;;;;;9.27;2.50;;;6.70;99.90;;;;;;5045046;28;20212;-78
2022/01/30 02:08:30;;;;;;;14.17;2.50;;;6.40;99.90;;;;;;5037365;28;20320;-78
2022/01/30 02:26:47;;;;;;;14.73;2.67;;;6.50;99.90;;;;;;5044887;28;20209;-77
2022/01/30 02:29:14;;;;;;;12.43;2.40;;;6.40;99.90;;;;;;5042787;28;20288;-78
2022/01/30 02:31:42;;;;;;;12.97;2.77;;;6.40;99.90;;;;;;5044839;28;20733;-78
2022/01/30 02:34:09;;;;;;;14.93;2.67;;;6.40;99.90;;;;;;5044731;28;20743;-78
2022/01/30 02:36:48;;;;;;;13.40;2.47;;;6.40;99.90;;;;;;5043228;28;20208;-78
2022/01/30 02:39:16;;;;;;;13.27;2.50;;;6.30;99.90;;;;;;5037736;28;20610;-75
2022/01/30 02:41:43;;;;;;;9.40;2.37;;;6.30;99.90;;;;;;5044058;28;20205;-77
2022/01/30 02:44:17;;;;;;;10.87;2.53;;;6.20;99.90;;;;;;5040625;28;20566;-76
2022/01/30 02:46:47;;;;;;;14.97;2.33;;;6.30;99.90;;;;;;5045982;28;20236;-77
2022/01/30 02:52:02;;;;;;;12.13;2.53;;;6.10;99.90;;;;;;5058259;28;20282;-77
2022/01/30 02:54:30;;;;;;;11.57;3.10;;;6.20;99.90;;;;;;5062783;28;20211;-77
2022/01/30 02:56:58;;;;;;;15.67;2.67;;;6.10;99.90;;;;;;5044257;28;20207;-77
2022/01/30 02:59:25;;;;;;;11.63;2.53;;;6.10;99.90;;;;;;5064433;28;20232;-77
2022/01/30 03:01:52;;;;;;;11.37;2.80;;;6.10;99.90;;;;;;5064149;28;20303;-78
2022/01/30 03:04:19;;;;;;;13.00;2.63;;;6.20;99.90;;;;;;5064493;28;20305;-78
2022/01/30 03:06:47;;;;;;;10.47;2.10;;;6.10;99.90;;;;;;5063498;28;20712;-78
2022/01/30 03:09:14;;;;;;;12.33;2.57;;;6.00;99.90;;;;;;5059817;28;20316;-77
2022/01/30 03:11:40;;;;;;;13.93;2.50;;;6.00;99.90;;;;;;5060245;28;20552;-78
2022/01/30 03:14:07;;;;;;;9.70;2.30;;;5.20;99.90;;;;;;5064051;28;20248;-78
2022/01/30 03:16:34;;;;;;;16.77;2.73;;;6.00;99.90;;;;;;5066447;28;20295;-77
2022/01/30 03:19:01;;;;;;;9.03;2.43;;;5.10;99.90;;;;;;5061581;28;20291;-78
2022/01/30 03:21:28;;;;;;;11.50;2.80;;;6.10;99.90;;;;;;5062531;28;20213;-78
2022/01/30 03:23:55;;;;;;;16.30;3.33;;;6.00;99.90;;;;;;5061952;28;20712;-77
2022/01/30 03:26:22;;;;;;;11.23;3.17;;;5.20;99.90;;;;;;5060824;28;20232;-77
2022/01/30 03:28:51;;;;;;;19.87;3.43;;;6.00;99.90;;;;;;5062349;28;20233;-77
2022/01/30 03:31:19;;;;;;;13.37;2.43;;;6.10;99.90;;;;;;5064356;28;20890;-78
2022/01/30 03:33:47;;;;;;;22.90;3.20;;;6.10;99.90;;;;;;5056639;28;20626;-78
2022/01/30 03:36:13;;;;;;;12.30;2.40;;;6.10;99.90;;;;;;5062701;28;20204;-79
2022/01/30 03:38:40;;;;;;;16.97;2.60;;;6.10;99.90;;;;;;5058476;28;20251;-78
2022/01/30 03:41:07;;;;;;;16.50;2.83;;;6.10;99.90;;;;;;5058740;28;20629;-78
2022/01/30 03:43:33;;;;;;;15.97;3.83;;;6.10;99.90;;;;;;5066146;28;20268;-78
2022/01/30 03:46:00;;;;;;;12.37;2.33;;;6.10;99.90;;;;;;5063634;28;20248;-78
2022/01/30 03:48:27;;;;;;;11.53;2.70;;;6.90;99.90;;;;;;5061944;28;20247;-77
2022/01/30 03:50:54;;;;;;;12.83;2.67;;;6.20;99.90;;;;;;5049506;28;20312;-78
2022/01/30 03:53:20;;;;;;;17.47;3.17;;;6.20;99.90;;;;;;5058334;28;20211;-78
2022/01/30 03:55:47;;;;;;;9.03;2.30;;;5.60;99.90;;;;;;5059163;28;20635;-78
2022/01/30 03:58:14;;;;;;;12.57;2.53;;;7.50;99.90;;;;;;5064316;28;20200;-78
2022/01/30 04:00:41;;;;;;;21.53;3.70;;;6.20;99.90;;;;;;5045002;28;20653;-77
2022/01/30 04:03:08;;;;;;;13.50;2.77;;;6.30;99.90;;;;;;5069439;28;20208;-77
2022/01/30 04:05:35;;;;;;;17.20;3.03;;;6.20;99.90;;;;;;5068785;28;20200;-77
2022/01/30 04:08:03;;;;;;;17.77;2.83;;;6.30;99.90;;;;;;5069342;28;20248;-78
2022/01/30 04:10:31;;;;;;;18.30;2.93;;;6.30;99.90;;;;;;5064157;28;20789;-77
2022/01/30 04:12:58;;;;;;;14.43;3.37;;;6.20;99.90;;;;;;5064307;28;20649;-77
2022/01/30 04:15:25;;;;;;;20.43;3.13;;;6.20;99.90;;;;;;5065698;28;20614;-79
2022/01/30 04:17:52;;;;;;;12.83;2.60;;;6.10;99.90;;;;;;5068553;28;20228;-78
2022/01/30 04:20:19;;;;;;;15.30;4.03;;;6.10;99.90;;;;;;5066758;28;20249;-77
2022/01/30 04:22:46;;;;;;;13.53;2.70;;;6.10;99.90;;;;;;5063539;28;20523;-76
2022/01/30 04:25:13;;;;;;;17.73;3.23;;;6.00;99.90;;;;;;5063316;28;20195;-77
2022/01/30 04:27:40;;;;;;;20.40;3.30;;;5.90;99.90;;;;;;5069123;28;20228;-78
2022/01/30 04:30:09;;;;;;;21.03;3.20;;;5.90;99.90;;;;;;5066010;28;20291;-77
2022/01/30 04:32:41;;;;;;;16.90;3.23;;;5.90;99.90;;;;;;5069285;28;20282;-78
2022/01/30 04:35:14;;;;;;;15.77;2.37;;;5.90;99.90;;;;;;5064989;28;20229;-78
2022/01/30 04:38:01;;;;;;;20.43;3.67;;;6.00;99.90;;;;;;5063291;28;20209;-78
2022/01/30 04:57:20;;;;;;;25.87;3.73;;;6.00;99.90;;;;;;5062824;28;20208;-77
2022/01/30 05:00:08;;;;;;;16.10;3.60;;;6.20;99.90;;;;;;5065752;28;20354;-77
2022/01/30 05:02:48;;;;;;;14.27;3.43;;;6.10;99.90;;;;;;5059233;28;20234;-77
2022/01/30 05:05:40;;;;;;;17.77;3.90;;;6.10;99.90;;;;;;5066936;28;20247;-77
2022/01/30 05:08:07;;;;;;;18.10;3.77;;;6.10;99.90;;;;;;5064496;28;20878;-77
2022/01/30 05:10:34;;;;;;;20.57;3.50;;;6.10;99.90;;;;;;5064612;28;20197;-77
2022/01/30 05:13:04;;;;;;;21.70;3.23;;;6.20;99.90;;;;;;5062977;28;20236;-77
2022/01/30 05:15:31;;;;;;;17.47;3.30;;;5.70;99.90;;;;;;5065974;28;20211;-77
2022/01/30 05:17:58;;;;;;;21.90;3.77;;;6.20;99.90;;;;;;5058827;28;20799;-78
2022/01/30 05:20:25;;;;;;;24.47;3.63;;;6.20;99.90;;;;;;5066796;28;20212;-77
2022/01/30 05:22:52;;;;;;;19.83;4.00;;;6.20;99.90;;;;;;5057005;28;20291;-77
2022/01/30 05:25:19;;;;;;;20.93;3.90;;;6.10;99.90;;;;;;5074934;28;20303;-77
2022/01/30 05:27:46;;;;;;;22.27;4.00;;;6.10;99.90;;;;;;5064678;28;20208;-77
2022/01/30 05:30:13;;;;;;;20.37;4.07;;;6.60;99.90;;;;;;5062587;28;20212;-77
2022/01/30 05:32:40;;;;;;;12.27;3.17;;;6.80;99.90;;;;;;5063473;28;20220;-79
2022/01/30 05:35:08;;;;;;;22.40;3.67;;;6.00;99.90;;;;;;5066760;28;20216;-77
2022/01/30 05:37:42;;;;;;;21.13;3.90;;;5.90;99.90;;;;;;5061399;28;20267;-77
2022/01/30 05:40:09;;;;;;;16.67;4.20;;;5.90;99.90;;;;;;5061741;28;20993;-77
2022/01/30 05:42:37;;;;;;;30.70;4.63;;;5.90;99.90;;;;;;5061529;28;20786;-77
2022/01/30 05:45:15;;;;;;;18.17;4.00;;;5.90;99.90;;;;;;5047724;28;20211;-78
2022/01/30 05:47:47;;;;;;;20.33;4.17;;;5.60;99.90;;;;;;5059494;28;20299;-77
2022/01/30 05:50:15;;;;;;;18.93;4.23;;;6.40;99.90;;;;;;5061955;28;20239;-78
2022/01/30 05:52:43;;;;;;;18.97;3.80;;;5.80;99.90;;;;;;5059841;28;20205;-77
2022/01/30 05:55:10;;;;;;;21.27;4.37;;;5.80;99.90;;;;;;5052800;28;20247;-78
2022/01/30 05:57:36;;;;;;;20.50;3.77;;;5.70;99.90;;;;;;5057819;28;20208;-78
2022/01/30 06:00:05;;;;;;;18.17;3.80;;;5.70;99.90;;;;;;5062650;28;20331;-78
2022/01/30 06:02:32;;;;;;;16.00;4.47;;;5.70;99.90;;;;;;5059953;28;20402;-78
2022/01/30 06:04:59;;;;;;;25.70;4.67;;;5.60;99.90;;;;;;5065138;28;20203;-77
2022/01/30 06:07:30;;;;;;;20.10;3.63;;;5.70;99.90;;;;;;5061627;28;20252;-77
2022/01/30 06:09:56;;;;;;;17.90;3.30;;;5.70;99.90;;;;;;5057855;28;20235;-78
2022/01/30 06:12:23;;;;;;;19.93;4.53;;;5.60;99.90;;;;;;5062988;28;20646;-78
2022/01/30 06:14:51;;;;;;;25.67;4.07;;;5.60;99.90;;;;;;5065252;28;20192;-78
2022/01/30 06:17:18;;;;;;;23.20;4.57;;;5.60;99.90;;;;;;5062467;28;20221;-78
2022/01/30 06:19:45;;;;;;;20.60;3.80;;;5.60;99.90;;;;;;5055899;28;20211;-77
2022/01/30 06:22:11;;;;;;;21.23;3.93;;;5.60;99.90;;;;;;5052490;28;20356;-78
2022/01/30 06:24:38;;;;;;;21.70;3.50;;;5.60;99.90;;;;;;5056315;28;20235;-78
2022/01/30 06:27:05;;;;;;;21.73;4.50;;;5.30;99.90;;;;;;5063005;28;20243;-78
2022/01/30 06:29:32;;;;;;;15.73;3.70;;;6.40;99.90;;;;;;5066155;28;20790;-78
2022/01/30 06:31:59;;;;;;;24.93;4.57;;;;;;;;;;5063888;28;20247;-77
2022/01/30 06:34:28;;;;;;;23.20;4.67;;;5.40;99.90;;;;;;5045991;28;20299;-77
2022/01/30 06:36:55;;;;;;;20.03;5.00;;;5.40;99.90;;;;;;5064092;28;20243;-77
2022/01/30 06:39:22;;;;;;;23.40;5.03;;;5.40;99.90;;;;;;5062792;28;20209;-78
2022/01/30 06:41:49;;;;;;;25.60;4.27;;;5.30;99.90;;;;;;5065307;28;20205;-78
2022/01/30 06:44:16;;;;;;;21.70;4.10;;;5.30;99.90;;;;;;5064938;28;20664;-78
2022/01/30 06:46:43;;;;;;;22.50;4.40;;;5.30;99.90;;;;;;5066821;28;20221;-78
2022/01/30 06:49:10;;;;;;;24.77;5.40;;;5.40;99.90;;;;;;5064580;28;20273;-78
2022/01/30 06:51:37;;;;;;;28.60;4.70;;;5.40;99.90;;;;;;5059009;28;20607;-77
2022/01/30 06:54:03;;;;;;;21.17;5.30;;;5.40;99.90;;;;;;5057310;28;20209;-78
2022/01/30 06:56:31;;;;;;;30.27;4.80;;;5.50;99.90;;;;;;5060565;28;20239;-77
2022/01/30 06:58:58;;;;;;;24.83;4.83;;;5.50;99.90;;;;;;5063684;28;20224;-78
2022/01/30 07:01:26;;;;;;;20.87;4.10;;;5.50;99.90;;;;;;5063612;28;20224;-78
2022/01/30 07:03:53;;;;;;;16.37;3.63;;;5.50;99.90;;;;;;5062773;28;20472;-78
2022/01/30 07:06:20;;;;;;;22.23;4.53;;;5.50;99.90;;;;;;5064299;28;20201;-78
2022/01/30 07:08:47;;;;;;;34.70;5.43;;;5.40;99.90;;;;;;5062614;28;20221;-78
2022/01/30 07:11:15;;;;;;;24.80;4.67;;;5.40;99.90;;;;;;5061685;28;20210;-78
2022/01/30 07:13:42;;;;;;;22.33;4.23;;;5.30;99.90;;;;;;5062121;28;20213;-78
2022/01/30 07:16:12;;;;;;;22.90;4.90;;;5.30;99.90;;;;;;5047716;28;20671;-78
2022/01/30 07:18:39;;;;;;;18.53;4.07;;;5.30;99.90;;;;;;5061213;28;20274;-78
2022/01/30 07:21:09;;;;;;;26.30;4.47;;;5.30;99.90;;;;;;5067708;28;20212;-78
2022/01/30 07:23:37;;;;;;;33.87;5.70;;;5.30;99.90;;;;;;5064219;28;20734;-78
2022/01/30 07:26:04;;;;;;;31.77;4.17;;;5.30;99.90;;;;;;5057791;28;20203;-79
2022/01/30 07:28:31;;;;;;;30.70;5.27;;;5.30;99.90;;;;;;5063627;28;20224;-77
2022/01/30 07:30:58;;;;;;;31.13;4.50;;;5.40;99.90;;;;;;5058111;28;20299;-77
2022/01/30 07:33:25;;;;;;;31.27;4.83;;;5.40;99.90;;;;;;5063615;28;20219;-77
2022/01/30 07:35:55;;;;;;;33.90;5.43;;;5.50;99.90;;;;;;5061112;28;20211;-78
2022/01/30 07:38:22;;;;;;;24.20;4.90;;;5.60;99.90;;;;;;5063805;28;20244;-78
2022/01/30 07:40:49;;;;;;;24.87;4.60;;;5.60;99.90;;;;;;5063473;28;20412;-79
2022/01/30 07:43:16;;;;;;;28.63;4.33;;;5.70;99.90;;;;;;5067700;28;20304;-78
2022/01/30 07:45:43;;;;;;;28.90;4.63;;;5.70;99.90;;;;;;5067171;28;20290;-79
2022/01/30 07:48:10;;;;;;;32.57;6.17;;;5.70;99.90;;;;;;5064252;28;20223;-79
2022/01/30 07:50:37;;;;;;;33.77;5.47;;;5.80;99.90;;;;;;5061013;28;20372;-77
2022/01/30 07:53:04;;;;;;;27.57;5.00;;;5.80;99.90;;;;;;5065731;28;20613;-79
2022/01/30 07:55:30;;;;;;;29.73;4.87;;;5.90;99.90;;;;;;5066317;28;20325;-78
2022/01/30 07:57:57;;;;;;;34.40;5.03;;;5.90;99.90;;;;;;5066678;28;20199;-78
2022/01/30 08:00:24;;;;;;;27.13;4.53;;;5.90;99.90;;;;;;5063672;28;20201;-79
2022/01/30 08:02:51;;;;;;;28.37;4.20;;;5.90;99.90;;;;;;5065118;28;20220;-78
2022/01/30 08:05:19;;;;;;;21.00;4.37;;;6.10;99.90;;;;;;5064463;28;20292;-79
2022/01/30 08:07:46;;;;;;;32.80;5.80;;;6.10;99.90;;;;;;5061158;28;20271;-78
2022/01/30 08:10:13;;;;;;;25.20;5.00;;;6.10;99.90;;;;;;5062213;28;20228;-77
2022/01/30 08:12:39;;;;;;;18.53;4.70;;;6.10;99.90;;;;;;5061644;28;20205;-79
2022/01/30 08:15:07;;;;;;;35.87;5.43;;;6.10;99.90;;;;;;5061497;28;20747;-77
2022/01/30 08:17:36;;;;;;;27.37;4.63;;;6.20;99.90;;;;;;5065306;28;20218;-77
2022/01/30 08:20:04;;;;;;;21.50;4.93;;;6.30;99.90;;;;;;5048160;28;20300;-78
2022/01/30 08:22:32;;;;;;;25.13;4.77;;;6.30;99.90;;;;;;5060887;28;20278;-78
2022/01/30 08:24:58;;;;;;;25.70;4.83;;;6.30;99.90;;;;;;5060477;28;20237;-78
2022/01/30 08:27:26;;;;;;;31.30;5.00;;;6.30;99.90;;;;;;5056664;28;20247;-79
2022/01/30 08:29:53;;;;;;;25.50;5.43;;;6.40;99.90;;;;;;5057632;28;20220;-77
2022/01/30 08:32:20;;;;;;;24.40;3.97;;;6.40;99.90;;;;;;5057840;28;20214;-77
2022/01/30 08:34:46;;;;;;;26.73;4.83;;;6.50;99.90;;;;;;5061694;28;20247;-78
2022/01/30 08:37:13;;;;;;;29.43;4.27;;;6.50;99.90;;;;;;5057268;28;20634;-77
2022/01/30 08:39:40;;;;;;;28.80;5.43;;;6.50;99.90;;;;;;5057700;28;20319;-76
2022/01/30 08:42:07;;;;;;;28.83;4.53;;;6.50;99.90;;;;;;5060831;28;20205;-78
2022/01/30 08:44:33;;;;;;;28.93;4.37;;;6.40;99.90;;;;;;5056252;28;20209;-77
2022/01/30 08:47:00;;;;;;;31.47;6.13;;;6.40;99.90;;;;;;5058747;28;20214;-77
2022/01/30 08:49:27;;;;;;;29.10;4.57;;;6.40;99.90;;;;;;5057236;28;20226;-77
2022/01/30 08:51:54;;;;;;;23.10;5.33;;;6.40;99.90;;;;;;5060456;28;20705;-78
2022/01/30 08:54:21;;;;;;;21.03;4.63;;;6.40;99.90;;;;;;5058711;28;20288;-78
2022/01/30 08:56:48;;;;;;;24.87;4.73;;;6.40;99.90;;;;;;5060459;28;20199;-78
